»·PEaware :: N893MA KSJC-KFUL

N893MA :: KSJC-KFUL

FLIGHT INFORMATION

Flight Status: Arrived
Operator: Privately registered:
United States
More flights under this callsign
Pilot: Jone M. (10385)
Aircraft: SOCATA TBM-900
(TBM9)
More flights by this aircraft type
Origin: KSJC Mineta San Jose Intl
United States
Destination: KFUL Fullerton Mun
United States
More flights between these airports :: More routes between these airports
Route: +LICKE V485 ROM V137 +AVE T259 LHS V459 SLI+
File this flight plan on PilotEdge
Remarks:
Altitude:
(Current/Filed)
30,000ft
Speed:
(Current/Filed)
280kts
Departed: 13-Jan-19 11:49 AM
Arrived: 13-Jan-19 01:09 PM
Distance/Time
Traveled:
285nm/1:19
Distance/Time
To Go:
Arrived

Flight Plot

Page will automatically refresh every two minutes.

Flight plan parsing failed; only flown route is shown


Map Options




Map Legend


Flown Route
Filed Route
Departure Airport
Arrival Airport
Navaid (VOR, NDB)
Fix

Horizontal Profiles

Position Reports

Time Latitude Longitude Heading Altitude Ground
Speed
13-Jan-19 11:26 37.357777 -121.929359 225 65ft 0kts
13-Jan-19 11:27 37.357777 -121.929359 225 65ft 0kts
13-Jan-19 11:28 37.357777 -121.929359 225 65ft 0kts
13-Jan-19 11:28 37.357777 -121.929359 225 65ft 0kts
13-Jan-19 11:30 37.357769 -121.929368 225 65ft 0kts
13-Jan-19 11:30 37.357769 -121.929368 225 65ft 0kts
13-Jan-19 11:32 37.357769 -121.929368 225 65ft 0kts
13-Jan-19 11:33 37.357769 -121.929368 225 65ft 0kts
13-Jan-19 11:33 37.357769 -121.929368 225 65ft 0kts
13-Jan-19 11:34 37.357769 -121.929368 225 65ft 0kts
13-Jan-19 11:35 37.357769 -121.929368 225 65ft 0kts
13-Jan-19 11:36 37.357769 -121.929368 225 65ft 0kts
13-Jan-19 11:37 37.357769 -121.929368 225 65ft 0kts
13-Jan-19 11:38 37.357769 -121.929368 225 65ft 0kts
13-Jan-19 11:39 37.357769 -121.929368 225 65ft 0kts
13-Jan-19 11:40 37.357798 -121.929625 304 65ft 4kts
13-Jan-19 11:41 37.358591 -121.929853 337 65ft 7kts
13-Jan-19 11:42 37.359873 -121.931259 320 65ft 11kts
13-Jan-19 11:43 37.362655 -121.934290 317 65ft 16kts
13-Jan-19 11:44 37.365545 -121.937453 319 65ft 17kts
13-Jan-19 11:45 37.368193 -121.940331 329 65ft 8kts
13-Jan-19 11:46 37.370147 -121.940316 350 65ft 13kts
13-Jan-19 11:47 37.372268 -121.941660 49 65ft 10kts
13-Jan-19 11:48 37.366061 -121.933538 138 115ft 112kts
13-Jan-19 11:49 37.335631 -121.901894 142 1874ft 155kts
13-Jan-19 11:50 37.302380 -121.862536 125 3692ft 156kts
13-Jan-19 11:51 37.265935 -121.820862 132 4368ft 162kts
13-Jan-19 11:52 37.229418 -121.778769 133 5005ft 167kts
13-Jan-19 11:53 37.190002 -121.737368 138 5694ft 169kts
13-Jan-19 11:54 37.155668 -121.694746 136 7608ft 169kts
13-Jan-19 11:55 37.121212 -121.654183 135 9363ft 172kts
13-Jan-19 11:56 37.086621 -121.614438 138 11261ft 170kts
13-Jan-19 11:57 37.051254 -121.574165 139 12814ft 175kts
13-Jan-19 11:58 37.014680 -121.532588 140 14121ft 182kts
13-Jan-19 11:59 36.976109 -121.488762 140 15146ft 197kts
13-Jan-19 12:00 36.933338 -121.440258 140 15623ft 222kts
13-Jan-19 12:01 36.885348 -121.391543 143 15634ft 232kts
13-Jan-19 12:02 36.835254 -121.342103 144 15729ft 232kts
13-Jan-19 12:03 36.787081 -121.294660 144 16319ft 225kts
13-Jan-19 12:04 36.738715 -121.247085 144 16772ft 227kts
13-Jan-19 12:05 36.691943 -121.201132 144 17631ft 211kts
13-Jan-19 12:06 36.648145 -121.158211 145 18710ft 208kts
13-Jan-19 12:07 36.601816 -121.112846 145 19517ft 213kts
13-Jan-19 12:08 36.555808 -121.067854 145 20553ft 205kts
13-Jan-19 12:09 36.510832 -121.023974 146 21421ft 209kts
13-Jan-19 12:10 36.467194 -120.981438 147 22567ft 202kts
13-Jan-19 12:11 36.423869 -120.939265 147 23803ft 200kts
13-Jan-19 12:12 36.380277 -120.896936 148 25663ft 204kts
13-Jan-19 12:13 36.335242 -120.853270 148 27359ft 212kts
13-Jan-19 12:14 36.288931 -120.808395 148 28809ft 220kts
13-Jan-19 12:15 36.238012 -120.759173 147 29126ft 259kts
13-Jan-19 12:16 36.180509 -120.703591 147 29111ft 277kts
13-Jan-19 12:17 36.123726 -120.641328 137 29113ft 288kts
13-Jan-19 12:18 36.071844 -120.568731 137 29109ft 290kts
13-Jan-19 12:19 36.020830 -120.497336 137 29108ft 291kts
13-Jan-19 12:20 35.968540 -120.424316 137 29109ft 290kts
13-Jan-19 12:21 35.916203 -120.351397 137 29112ft 290kts
13-Jan-19 12:22 35.864981 -120.280156 137 29118ft 291kts
13-Jan-19 12:23 35.811834 -120.206401 137 29120ft 291kts
13-Jan-19 12:24 35.759173 -120.133473 137 29120ft 291kts
13-Jan-19 12:25 35.705904 -120.059847 137 29111ft 292kts
13-Jan-19 12:26 35.653097 -119.985629 129 29100ft 296kts
13-Jan-19 12:27 35.630103 -119.885672 107 29112ft 308kts
13-Jan-19 12:28 35.611936 -119.785205 107 29110ft 311kts
13-Jan-19 12:29 35.593522 -119.684303 107 29117ft 312kts
13-Jan-19 12:30 35.574528 -119.580700 108 29117ft 313kts
13-Jan-19 12:31 35.555716 -119.478565 108 29108ft 313kts
13-Jan-19 12:32 35.537251 -119.378943 108 29115ft 312kts
13-Jan-19 12:33 35.521140 -119.292456 108 29105ft 313kts
13-Jan-19 12:34 35.502222 -119.191431 108 29111ft 312kts
13-Jan-19 12:35 35.470068 -119.094513 139 29098ft 295kts
13-Jan-19 12:36 35.401401 -119.042864 156 29114ft 286kts
13-Jan-19 12:37 35.332087 -118.997412 156 29108ft 286kts
13-Jan-19 12:38 35.264309 -118.953148 157 29108ft 286kts
13-Jan-19 12:39 35.195172 -118.908077 157 29108ft 287kts
13-Jan-19 12:40 35.126187 -118.863200 157 29118ft 287kts
13-Jan-19 12:41 35.053685 -118.816214 155 29154ft 315kts
13-Jan-19 12:42 34.977135 -118.766347 157 29153ft 312kts
13-Jan-19 12:43 34.905178 -118.719997 158 29138ft 295kts
13-Jan-19 12:44 34.837481 -118.676338 158 29154ft 290kts
13-Jan-19 12:45 34.765587 -118.630043 158 29174ft 289kts
13-Jan-19 12:46 34.695495 -118.584979 158 29199ft 289kts
13-Jan-19 12:47 34.624833 -118.542820 160 29197ft 288kts
13-Jan-19 12:48 34.555695 -118.502307 160 29192ft 288kts
13-Jan-19 12:49 34.485983 -118.461456 161 28887ft 258kts
13-Jan-19 12:50 34.422207 -118.424311 159 26984ft 255kts
13-Jan-19 12:51 34.360416 -118.388300 159 25562ft 247kts
13-Jan-19 12:52 34.300657 -118.353524 158 24276ft 241kts
13-Jan-19 12:53 34.245722 -118.321539 157 23146ft 236kts
13-Jan-19 12:54 34.189562 -118.288999 157 22070ft 232kts
13-Jan-19 12:55 34.133845 -118.256736 157 21103ft 229kts
13-Jan-19 12:56 34.077759 -118.224298 156 20218ft 225kts
13-Jan-19 12:57 34.026605 -118.194790 157 18096ft 201kts
13-Jan-19 12:58 33.978264 -118.166899 155 15516ft 192kts
13-Jan-19 12:59 33.932052 -118.140254 154 12634ft 186kts
13-Jan-19 13:00 33.888050 -118.114937 153 9927ft 180kts
13-Jan-19 13:01 33.847119 -118.091397 153 7441ft 177kts
13-Jan-19 13:02 33.803522 -118.066354 154 4856ft 172kts
13-Jan-19 13:03 33.797557 -118.027657 59 3654ft 155kts
13-Jan-19 13:04 33.824088 -117.993447 28 2922ft 122kts
13-Jan-19 13:05 33.843184 -117.966153 67 1596ft 121kts
13-Jan-19 13:06 33.861376 -117.952073 343 893ft 75kts
13-Jan-19 13:07 33.873664 -117.971278 259 185ft 83kts
13-Jan-19 13:08 33.871334 -117.981169 155 99ft 0kts
13-Jan-19 13:09 33.870671 -117.979742 95 99ft 6kts
13-Jan-19 13:10 33.870667 -117.979581 89 99ft 0kts
13-Jan-19 13:11 33.870667 -117.979581 89 99ft 0kts
13-Jan-19 13:12 33.870667 -117.979581 89 99ft 0kts
13-Jan-19 13:13 33.870667 -117.979581 89 99ft 0kts
13-Jan-19 13:14 33.870667 -117.979581 89 99ft 0kts
13-Jan-19 13:15 33.870667 -117.979581 89 99ft 0kts

Navigation Log

Ident Type
Flight plan parsing failed, navigation log unavailable